Time;durP1;ratioP1;P1;durP2;ratioP2;P2;SDS_P1;SDS_P2;PMS_P1;PMS_P2;Temp;Humidity;BMP_temperature;BMP_pressure;BME280_temperature;BME280_humidity;BME280_pressure;Samples;Min_cycle;Max_cycle;Signal;HPM_P1;HPM_P2
2022/07/24 00:01:12;;;;;;;6.55;3.65;;;14.20;99.90;;;;;;4879952;29;20055;-84
2022/07/24 00:03:38;;;;;;;6.72;3.63;;;14.10;99.90;;;;;;4880153;29;20407;-83
2022/07/24 00:06:04;;;;;;;5.38;3.75;;;14.10;99.90;;;;;;4878437;29;20036;-83
2022/07/24 00:08:29;;;;;;;5.53;4.00;;;14.10;99.90;;;;;;4872842;29;20251;-83
2022/07/24 00:10:55;;;;;;;4.53;3.25;;;14.10;99.90;;;;;;4868655;29;20045;-84
2022/07/24 00:13:20;;;;;;;5.57;3.85;;;14.00;99.90;;;;;;4861700;29;20060;-83
2022/07/24 00:15:46;;;;;;;4.25;3.85;;;14.00;99.90;;;;;;4860125;29;20049;-83
2022/07/24 00:18:12;;;;;;;5.97;3.65;;;13.90;99.90;;;;;;4870209;29;20041;-83
2022/07/24 00:20:37;;;;;;;3.97;2.97;;;13.90;99.90;;;;;;4856872;29;20074;-84
2022/07/24 00:23:03;;;;;;;6.32;3.40;;;13.80;99.90;;;;;;4868998;29;20404;-82
2022/07/24 00:25:28;;;;;;;4.10;3.20;;;13.90;99.90;;;;;;4874096;29;20037;-83
2022/07/24 00:27:54;;;;;;;6.00;3.13;;;13.90;99.90;;;;;;4861154;29;20048;-83
2022/07/24 00:30:20;;;;;;;4.90;3.90;;;13.90;99.90;;;;;;4861384;29;20455;-83
2022/07/24 00:32:45;;;;;;;6.03;3.78;;;13.90;99.90;;;;;;4861145;29;20044;-83
2022/07/24 00:35:13;;;;;;;4.82;3.13;;;14.00;99.90;;;;;;4860969;29;20063;-85
2022/07/24 00:37:39;;;;;;;5.43;3.40;;;13.90;99.90;;;;;;4867527;29;20044;-85
2022/07/24 00:40:05;;;;;;;5.10;3.13;;;13.90;99.90;;;;;;4876601;29;20044;-85
2022/07/24 00:42:30;;;;;;;6.13;3.15;;;13.80;99.90;;;;;;4860339;29;20052;-85
2022/07/24 00:44:56;;;;;;;4.15;3.75;;;13.80;99.90;;;;;;4860955;29;20033;-84
2022/07/24 00:47:22;;;;;;;3.88;2.55;;;13.80;99.90;;;;;;4845842;29;20089;-85
2022/07/24 00:49:47;;;;;;;4.07;3.10;;;13.80;99.90;;;;;;4860251;29;20655;-85
2022/07/24 00:52:13;;;;;;;4.00;3.30;;;13.80;99.90;;;;;;4873067;29;20103;-85
2022/07/24 00:54:39;;;;;;;4.65;3.42;;;13.80;99.90;;;;;;4873138;29;20053;-85
2022/07/24 00:57:05;;;;;;;6.15;4.28;;;13.80;99.90;;;;;;4863643;29;20099;-85
2022/07/24 00:59:30;;;;;;;6.55;4.30;;;13.80;99.90;;;;;;4860677;29;20053;-85
2022/07/24 01:01:56;;;;;;;5.43;3.17;;;13.80;99.90;;;;;;4845458;29;20575;-85
2022/07/24 01:04:22;;;;;;;7.32;4.40;;;13.80;99.90;;;;;;4845428;29;20045;-84
2022/07/24 01:06:48;;;;;;;5.00;3.78;;;13.80;99.90;;;;;;4850896;29;20127;-84
2022/07/24 01:09:14;;;;;;;4.32;3.53;;;13.80;99.90;;;;;;4884500;29;20048;-84
2022/07/24 01:11:41;;;;;;;5.75;4.18;;;13.80;99.90;;;;;;4855601;29;20041;-85
2022/07/24 01:14:08;;;;;;;8.52;4.93;;;13.80;99.90;;;;;;4878969;29;20049;-85
2022/07/24 01:16:35;;;;;;;6.13;5.20;;;13.80;99.90;;;;;;4879038;29;20044;-85
2022/07/24 01:19:00;;;;;;;5.28;3.85;;;13.80;99.90;;;;;;4869193;29;20068;-84
2022/07/24 01:21:26;;;;;;;5.32;4.57;;;13.80;99.90;;;;;;4871303;29;20084;-85
2022/07/24 01:23:52;;;;;;;5.20;3.85;;;13.80;99.90;;;;;;4879199;29;20077;-84
2022/07/24 01:26:17;;;;;;;6.63;4.60;;;13.70;99.90;;;;;;4869664;29;20037;-84
2022/07/24 01:28:43;;;;;;;7.75;4.93;;;13.70;99.90;;;;;;4861290;29;20045;-84
2022/07/24 01:31:09;;;;;;;6.63;5.07;;;13.70;99.90;;;;;;4848939;29;20071;-84
2022/07/24 01:33:34;;;;;;;5.97;4.30;;;13.70;99.90;;;;;;4863210;29;20049;-84
2022/07/24 01:36:00;;;;;;;5.57;4.30;;;13.80;99.90;;;;;;4871806;29;20045;-84
2022/07/24 01:38:25;;;;;;;6.13;4.95;;;13.80;99.90;;;;;;4882519;29;20051;-84
2022/07/24 01:40:52;;;;;;;4.72;4.13;;;13.80;99.90;;;;;;4873256;29;20040;-84
2022/07/24 01:43:17;;;;;;;5.10;4.32;;;13.80;99.90;;;;;;4871868;29;20220;-84
2022/07/24 01:45:43;;;;;;;8.52;5.40;;;13.80;99.90;;;;;;4863791;29;20059;-84
2022/07/24 01:48:09;;;;;;;5.63;4.45;;;13.80;99.90;;;;;;4864219;29;20048;-84
2022/07/24 01:50:35;;;;;;;11.90;5.78;;;13.90;99.90;;;;;;4859380;29;20058;-83
2022/07/24 01:53:01;;;;;;;7.93;4.15;;;13.80;99.90;;;;;;4867137;29;20131;-84
2022/07/24 01:55:28;;;;;;;7.07;4.93;;;13.90;99.90;;;;;;4882587;29;20051;-83
2022/07/24 01:57:53;;;;;;;7.68;4.43;;;13.90;99.90;;;;;;4851231;29;20037;-85
2022/07/24 02:00:19;;;;;;;5.25;4.45;;;13.90;99.90;;;;;;4854501;29;20135;-84
2022/07/24 02:02:45;;;;;;;11.82;5.38;;;13.90;99.90;;;;;;4869942;29;20094;-85
2022/07/24 02:05:12;;;;;;;8.75;4.53;;;13.90;99.90;;;;;;4854282;29;20100;-85
2022/07/24 02:07:39;;;;;;;6.05;4.85;;;13.90;99.90;;;;;;4872296;29;20091;-85
2022/07/24 02:10:05;;;;;;;6.07;4.65;;;13.90;99.90;;;;;;4862936;29;20385;-84
2022/07/24 02:12:30;;;;;;;5.63;4.20;;;13.80;99.90;;;;;;4863571;29;20059;-83
2022/07/24 02:14:56;;;;;;;6.13;4.30;;;13.80;99.90;;;;;;4847951;29;20340;-85
2022/07/24 02:17:22;;;;;;;4.80;4.18;;;13.80;99.90;;;;;;4848192;29;20116;-84
2022/07/24 02:19:48;;;;;;;7.78;4.65;;;13.80;99.90;;;;;;4868405;29;20079;-84
2022/07/24 02:22:13;;;;;;;5.53;4.57;;;13.80;99.90;;;;;;4875615;29;20033;-84
2022/07/24 02:24:39;;;;;;;6.60;4.35;;;13.80;99.90;;;;;;4848222;29;20555;-83
2022/07/24 02:27:04;;;;;;;11.35;5.78;;;13.80;99.90;;;;;;4863698;29;20413;-83
2022/07/24 02:29:30;;;;;;;7.75;5.18;;;13.80;99.90;;;;;;4863717;29;20132;-83
2022/07/24 02:31:55;;;;;;;6.70;5.47;;;13.80;99.90;;;;;;4845913;29;20037;-84
2022/07/24 02:34:21;;;;;;;6.60;5.10;;;13.80;99.90;;;;;;4856638;29;20056;-85
2022/07/24 02:36:47;;;;;;;7.60;5.05;;;13.80;99.90;;;;;;4870684;29;20053;-83
2022/07/24 02:39:12;;;;;;;4.75;3.53;;;13.70;99.90;;;;;;4863385;29;20049;-83
2022/07/24 02:41:38;;;;;;;8.70;5.15;;;13.70;99.90;;;;;;4873856;29;20041;-83
2022/07/24 02:44:03;;;;;;;7.10;4.60;;;13.70;99.90;;;;;;4857075;29;20041;-83
2022/07/24 02:46:29;;;;;;;6.53;4.88;;;13.70;99.90;;;;;;4848570;29;20555;-83
2022/07/24 02:48:54;;;;;;;5.93;5.00;;;13.70;99.90;;;;;;4847226;29;20049;-83
2022/07/24 02:51:20;;;;;;;6.97;5.40;;;13.70;99.90;;;;;;4879059;29;20408;-84
2022/07/24 02:53:46;;;;;;;6.82;5.38;;;13.80;99.90;;;;;;4867131;29;20053;-83
2022/07/24 02:56:11;;;;;;;7.60;4.55;;;13.80;99.90;;;;;;4866849;29;20048;-83
2022/07/24 02:58:37;;;;;;;6.60;4.70;;;13.80;99.90;;;;;;4860695;29;20622;-83
2022/07/24 03:01:03;;;;;;;13.07;6.25;;;13.90;99.90;;;;;;4863863;29;20044;-83
2022/07/24 03:03:28;;;;;;;9.98;6.15;;;13.80;99.90;;;;;;4867612;29;20063;-82
2022/07/24 03:05:54;;;;;;;8.52;6.65;;;13.80;99.90;;;;;;4879946;29;20519;-82
2022/07/24 03:08:19;;;;;;;6.53;5.18;;;13.80;99.90;;;;;;4876898;29;20102;-82
2022/07/24 03:10:45;;;;;;;9.25;6.30;;;13.70;99.90;;;;;;4861484;29;20506;-83
2022/07/24 03:13:12;;;;;;;11.02;6.70;;;13.70;99.90;;;;;;4863585;29;20170;-82
2022/07/24 03:15:37;;;;;;;10.30;6.43;;;13.70;99.90;;;;;;4864002;29;20132;-83
2022/07/24 03:18:03;;;;;;;7.07;5.28;;;13.70;99.90;;;;;;4862139;29;20133;-82
2022/07/24 03:20:29;;;;;;;8.27;5.63;;;13.70;99.90;;;;;;4863972;29;20072;-82
2022/07/24 03:22:56;;;;;;;13.00;7.20;;;13.70;99.90;;;;;;4864104;29;20041;-82
2022/07/24 03:25:22;;;;;;;8.85;6.38;;;13.80;99.90;;;;;;4863922;29;20123;-82
2022/07/24 03:27:48;;;;;;;9.85;5.65;;;13.70;99.90;;;;;;4863964;29;20075;-82
2022/07/24 03:30:14;;;;;;;9.88;6.70;;;13.80;99.90;;;;;;4863511;29;20051;-82
2022/07/24 03:32:40;;;;;;;9.43;5.82;;;13.70;99.90;;;;;;4861247;29;20045;-82
2022/07/24 03:35:06;;;;;;;12.73;6.47;;;13.70;99.90;;;;;;4848768;29;20044;-82
2022/07/24 03:37:33;;;;;;;9.95;6.43;;;13.70;99.90;;;;;;4856533;29;20076;-82
2022/07/24 03:39:59;;;;;;;13.30;6.13;;;13.70;99.90;;;;;;4864865;29;20540;-82
2022/07/24 03:42:24;;;;;;;16.20;7.45;;;13.70;99.90;;;;;;4862119;29;20124;-82
2022/07/24 03:44:50;;;;;;;10.60;5.82;;;13.60;99.90;;;;;;4863391;29;20033;-82
2022/07/24 03:47:15;;;;;;;8.52;5.88;;;13.70;99.90;;;;;;4864165;29;20041;-83
2022/07/24 03:49:41;;;;;;;12.95;7.05;;;13.60;99.90;;;;;;4864369;29;20113;-83
2022/07/24 03:52:06;;;;;;;10.07;6.75;;;13.60;99.90;;;;;;4862669;29;20068;-84
2022/07/24 03:54:32;;;;;;;9.80;6.05;;;13.60;99.90;;;;;;4860238;29;20132;-82
2022/07/24 03:56:58;;;;;;;11.60;6.57;;;13.60;99.90;;;;;;4860461;29;20045;-83
2022/07/24 03:59:23;;;;;;;7.65;5.85;;;13.70;99.90;;;;;;4862009;29;20033;-83
2022/07/24 04:01:49;;;;;;;10.43;6.00;;;13.70;99.90;;;;;;4874213;29;20044;-84
2022/07/24 04:04:15;;;;;;;14.35;6.50;;;13.70;99.90;;;;;;4866629;29;20045;-81
2022/07/24 04:06:40;;;;;;;11.73;5.65;;;13.80;99.90;;;;;;4865832;29;20048;-82
2022/07/24 04:09:06;;;;;;;10.80;6.18;;;13.80;99.90;;;;;;4851861;29;20146;-82
2022/07/24 04:11:32;;;;;;;12.35;7.05;;;13.90;99.90;;;;;;4862383;29;20106;-82
2022/07/24 04:13:57;;;;;;;10.27;6.72;;;13.90;99.90;;;;;;4863081;29;20056;-83
2022/07/24 04:16:23;;;;;;;8.90;6.35;;;13.90;99.90;;;;;;4861617;29;20040;-82
2022/07/24 04:18:48;;;;;;;9.43;5.53;;;14.00;99.90;;;;;;4860802;29;20044;-82
2022/07/24 04:21:14;;;;;;;8.90;5.93;;;14.00;99.90;;;;;;4862093;29;20039;-82
2022/07/24 04:23:40;;;;;;;11.50;6.40;;;14.10;99.90;;;;;;4863885;29;20078;-83
2022/07/24 04:26:06;;;;;;;10.57;5.55;;;14.10;99.90;;;;;;4845241;29;20295;-82
2022/07/24 04:28:32;;;;;;;12.48;6.05;;;14.10;99.90;;;;;;4861775;29;20052;-83
2022/07/24 04:30:57;;;;;;;9.63;5.93;;;14.20;99.90;;;;;;4866306;29;20441;-83
2022/07/24 04:33:23;;;;;;;9.95;5.35;;;14.20;99.90;;;;;;4860778;29;20041;-83
2022/07/24 04:35:49;;;;;;;18.15;5.55;;;14.20;99.90;;;;;;4865583;29;20097;-83
2022/07/24 04:38:15;;;;;;;10.13;6.18;;;14.30;99.90;;;;;;4860254;29;20050;-82
2022/07/24 04:40:41;;;;;;;9.60;6.03;;;14.30;99.90;;;;;;4859429;29;20430;-82
2022/07/24 04:43:07;;;;;;;12.25;5.88;;;14.30;99.90;;;;;;4857787;29;20443;-82
2022/07/24 04:45:32;;;;;;;12.55;5.90;;;14.40;99.90;;;;;;4858164;29;20106;-82
2022/07/24 04:47:58;;;;;;;16.02;5.70;;;14.40;99.90;;;;;;4857872;29;20049;-82
2022/07/24 04:50:24;;;;;;;11.25;5.88;;;14.40;99.90;;;;;;4868219;29;20059;-82
2022/07/24 04:52:49;;;;;;;16.45;6.18;;;14.50;99.90;;;;;;4874589;29;20048;-83
2022/07/24 04:55:15;;;;;;;14.38;6.00;;;14.50;99.90;;;;;;4879183;29;20044;-82
2022/07/24 04:57:41;;;;;;;9.32;6.47;;;14.60;99.90;;;;;;4868811;29;20041;-83
2022/07/24 05:00:10;;;;;;;13.73;5.97;;;14.60;99.90;;;;;;4860848;29;20497;-83
2022/07/24 05:02:35;;;;;;;15.05;6.55;;;14.70;99.90;;;;;;4869630;29;20120;-82
2022/07/24 05:05:01;;;;;;;11.88;6.30;;;14.80;99.90;;;;;;4866020;29;20508;-83
2022/07/24 05:07:26;;;;;;;17.40;6.70;;;14.90;99.90;;;;;;4857522;29;20068;-83
2022/07/24 05:09:52;;;;;;;26.50;6.82;;;15.00;99.90;;;;;;4864980;29;20515;-83
2022/07/24 05:12:18;;;;;;;19.75;6.95;;;15.10;99.90;;;;;;4864929;29;20144;-83
2022/07/24 05:14:43;;;;;;;17.02;6.30;;;15.20;99.90;;;;;;4860704;29;20051;-83
2022/07/24 05:17:09;;;;;;;18.88;6.88;;;15.30;99.90;;;;;;4861185;29;20045;-83
2022/07/24 05:19:35;;;;;;;21.23;7.45;;;15.40;99.90;;;;;;4867564;29;20037;-83
2022/07/24 05:22:00;;;;;;;13.55;7.05;;;15.50;99.90;;;;;;4865433;29;20404;-82
2022/07/24 05:24:26;;;;;;;18.42;6.05;;;15.60;99.90;;;;;;4860809;29;20493;-82
2022/07/24 05:26:52;;;;;;;7.25;5.45;;;15.70;99.90;;;;;;4884837;29;20040;-82
2022/07/24 05:29:18;;;;;;;9.30;5.70;;;15.80;99.90;;;;;;4865697;29;20044;-82
2022/07/24 05:31:43;;;;;;;7.78;5.97;;;15.80;99.90;;;;;;4859780;29;20037;-83
2022/07/24 05:34:09;;;;;;;9.75;6.60;;;15.90;99.90;;;;;;4869393;29;20065;-83
2022/07/24 05:36:35;;;;;;;9.90;5.88;;;15.90;99.90;;;;;;4861578;29;20218;-84
2022/07/24 05:39:01;;;;;;;10.05;6.30;;;16.00;99.90;;;;;;4861576;29;20052;-82
2022/07/24 05:41:26;;;;;;;9.10;6.40;;;16.10;99.90;;;;;;4845901;29;20037;-82
2022/07/24 05:43:53;;;;;;;7.32;6.25;;;16.20;99.90;;;;;;4860370;29;20037;-82
2022/07/24 05:46:19;;;;;;;7.68;5.70;;;16.30;99.90;;;;;;4861689;29;20049;-82
2022/07/24 05:48:45;;;;;;;7.00;5.50;;;16.50;99.90;;;;;;4871398;29;20045;-83
2022/07/24 05:51:10;;;;;;;7.40;5.95;;;16.70;99.90;;;;;;4865927;29;20056;-83
2022/07/24 05:53:36;;;;;;;12.18;6.70;;;16.90;99.90;;;;;;4842337;29;20079;-83
2022/07/24 05:56:01;;;;;;;7.53;5.90;;;17.00;99.90;;;;;;4849416;29;20072;-83
2022/07/24 05:58:28;;;;;;;7.15;6.00;;;17.20;99.90;;;;;;4873854;23;20053;-76
2022/07/24 06:00:54;;;;;;;7.80;5.53;;;17.30;99.90;;;;;;4861751;29;20032;-77
2022/07/24 06:03:20;;;;;;;6.80;5.80;;;17.30;99.90;;;;;;4844403;29;20044;-77
2022/07/24 06:05:46;;;;;;;7.80;5.97;;;17.30;99.90;;;;;;4843849;29;20531;-76
2022/07/24 06:08:38;;;;;;;6.65;5.25;;;17.40;99.90;;;;;;4856232;29;20045;-76
2022/07/24 06:15:15;;;;;;;6.32;5.63;;;17.80;99.90;;;;;;4868804;29;20544;-76
2022/07/24 06:17:42;;;;;;;8.00;5.13;;;18.00;99.90;;;;;;4842126;29;20037;-76
2022/07/24 06:20:12;;;;;;;10.48;5.82;;;18.30;99.90;;;;;;4844589;29;20052;-77
2022/07/24 06:23:06;;;;;;;7.57;6.38;;;18.50;99.90;;;;;;4843211;29;20041;-76
2022/07/24 06:25:35;;;;;;;9.48;6.53;;;18.60;99.90;;;;;;4844537;29;20037;-77
2022/07/24 06:28:04;;;;;;;6.40;5.80;;;18.80;99.90;;;;;;4860251;29;20045;-77
2022/07/24 06:30:44;;;;;;;8.13;6.10;;;19.00;99.90;;;;;;4843182;29;20078;-77
2022/07/24 06:33:26;;;;;;;6.93;5.47;;;19.10;99.90;;;;;;4846209;29;20172;-76
2022/07/24 06:36:22;;;;;;;5.75;5.25;;;19.10;99.90;;;;;;4860684;29;20231;-77
2022/07/24 06:39:02;;;;;;;8.30;6.25;;;19.10;99.90;;;;;;4830068;29;20048;-77
2022/07/24 06:41:34;;;;;;;8.13;7.20;;;19.20;99.90;;;;;;4862028;29;20060;-77
2022/07/24 06:44:33;;;;;;;9.02;7.40;;;19.40;99.90;;;;;;4863856;29;20125;-76
2022/07/24 06:47:07;;;;;;;8.88;7.65;;;19.60;99.90;;;;;;4859601;29;20124;-77
2022/07/24 06:49:35;;;;;;;9.35;6.95;;;20.00;99.90;;;;;;4862164;29;20049;-77
2022/07/24 06:52:06;;;;;;;7.20;6.45;;;20.40;99.90;;;;;;4877374;29;20049;-77
2022/07/24 06:58:38;;;;;;;7.68;6.78;;;21.20;99.90;;;;;;4891804;29;20044;-77
2022/07/24 07:01:15;;;;;;;7.80;7.00;;;21.60;99.90;;;;;;4891370;29;20037;-77
2022/07/24 07:03:57;;;;;;;7.93;6.30;;;21.70;99.90;;;;;;4847119;29;20053;-76
2022/07/24 07:06:48;;;;;;;7.97;7.15;;;21.80;99.90;;;;;;4844300;29;20056;-77
2022/07/24 07:10:27;;;;;;;9.27;7.03;;;21.70;99.90;;;;;;4869409;29;20040;-76
2022/07/24 07:17:21;;;;;;;9.00;7.43;;;21.50;99.90;;;;;;4796131;29;20085;-77
2022/07/24 07:20:33;;;;;;;10.50;8.68;;;22.00;99.90;;;;;;4804797;29;20057;-77
2022/07/24 07:23:42;;;;;;;11.30;9.02;;;22.20;99.90;;;;;;4791466;29;20059;-76
2022/07/24 07:33:41;;;;;;;11.38;9.45;;;22.90;99.90;;;;;;4746875;30;20530;-77
2022/07/24 07:36:44;;;;;;;13.80;9.27;;;23.00;99.90;;;;;;4747513;30;20060;-77
2022/07/24 07:39:40;;;;;;;10.23;9.07;;;23.00;99.90;;;;;;4755188;30;20063;-77
2022/07/24 07:47:21;;;;;;;13.45;8.98;;;23.60;99.90;;;;;;4678039;30;20093;-78
2022/07/24 07:58:50;;;;;;;;;;;;;;;;;;;;;
2022/07/24 14:01:29;;;;;;;2.65;0.77;;;33.60;45.60;;;;;;4863145;29;20061;-83
2022/07/24 14:03:55;;;;;;;1.30;1.00;;;33.80;47.50;;;;;;4841551;29;20052;-83
2022/07/24 14:06:20;;;;;;;3.05;1.42;;;34.00;46.20;;;;;;4842257;29;20168;-83
2022/07/24 14:08:46;;;;;;;3.05;1.90;;;34.30;46.60;;;;;;4843620;29;20435;-84
2022/07/24 14:11:12;;;;;;;17.55;14.35;;;34.50;45.50;;;;;;4842635;29;20049;-83
2022/07/24 14:13:37;;;;;;;2.22;0.85;;;34.40;45.30;;;;;;4841287;29;20120;-84
2022/07/24 14:16:03;;;;;;;1.33;1.23;;;34.40;46.60;;;;;;4844219;29;20033;-82
2022/07/24 14:18:29;;;;;;;1.90;0.77;;;34.50;46.50;;;;;;4838121;29;20041;-83
2022/07/24 14:20:55;;;;;;;2.88;1.00;;;34.40;45.30;;;;;;4838065;29;20056;-83
2022/07/24 14:23:20;;;;;;;3.38;1.00;;;34.80;46.20;;;;;;4841201;29;20523;-83
2022/07/24 14:25:46;;;;;;;1.42;0.43;;;35.10;45.20;;;;;;4841164;29;20148;-83
2022/07/24 14:28:12;;;;;;;2.45;1.05;;;35.30;44.40;;;;;;4840936;29;20075;-83
2022/07/24 14:30:39;;;;;;;2.45;0.80;;;35.60;45.30;;;;;;4840735;29;20098;-82
2022/07/24 14:33:04;;;;;;;2.40;0.85;;;35.80;43.60;;;;;;4841392;29;20100;-83
2022/07/24 14:35:30;;;;;;;6.72;1.38;;;36.00;44.90;;;;;;4825917;29;20136;-84
2022/07/24 14:37:57;;;;;;;2.22;0.95;;;36.30;46.50;;;;;;4844717;29;20245;-83
2022/07/24 14:40:23;;;;;;;1.77;0.95;;;36.80;46.10;;;;;;4844478;29;20089;-82
2022/07/24 14:42:49;;;;;;;2.55;1.08;;;37.10;46.60;;;;;;4844649;29;20144;-83
2022/07/24 14:45:15;;;;;;;1.83;1.13;;;37.30;46.60;;;;;;4845639;29;20046;-82
2022/07/24 14:47:40;;;;;;;2.38;1.05;;;37.40;43.80;;;;;;4845974;29;20057;-81
2022/07/24 14:50:07;;;;;;;1.40;0.80;;;37.30;43.80;;;;;;4845668;29;20053;-82
2022/07/24 14:52:33;;;;;;;1.50;0.90;;;37.30;45.40;;;;;;4844428;29;20092;-84
2022/07/24 14:54:59;;;;;;;1.92;1.10;;;37.40;44.40;;;;;;4844372;29;20076;-84
2022/07/24 14:57:25;;;;;;;1.35;0.88;;;37.20;44.20;;;;;;4844757;29;20045;-84
2022/07/24 14:59:50;;;;;;;1.67;0.95;;;37.20;44.20;;;;;;4860627;29;20094;-83
2022/07/24 15:02:16;;;;;;;1.25;0.90;;;36.90;44.00;;;;;;4845456;29;20389;-84
2022/07/24 15:04:42;;;;;;;1.40;0.80;;;36.80;44.30;;;;;;4845341;29;20110;-84
2022/07/24 15:07:08;;;;;;;2.17;1.55;;;36.60;44.30;;;;;;4844990;29;20041;-84
2022/07/24 15:09:33;;;;;;;1.15;1.05;;;36.70;44.80;;;;;;4845054;29;20044;-83
2022/07/24 15:11:59;;;;;;;1.45;0.90;;;36.50;44.70;;;;;;4845899;29;20118;-84
2022/07/24 15:14:24;;;;;;;1.45;1.00;;;36.50;44.30;;;;;;4844655;29;20050;-83
2022/07/24 15:16:50;;;;;;;2.35;0.82;;;36.90;44.20;;;;;;4845033;29;20197;-84
2022/07/24 15:19:15;;;;;;;4.22;0.98;;;37.10;43.70;;;;;;4844806;29;20088;-84
2022/07/24 15:21:41;;;;;;;1.67;0.80;;;37.30;43.40;;;;;;4844766;29;20049;-84
2022/07/24 15:24:07;;;;;;;1.40;0.70;;;37.40;42.50;;;;;;4843562;29;20500;-82
2022/07/24 15:26:33;;;;;;;1.58;0.80;;;37.00;44.10;;;;;;4843954;29;20045;-81
2022/07/24 15:28:58;;;;;;;1.80;0.80;;;36.90;43.00;;;;;;4843781;29;20507;-82
2022/07/24 15:31:24;;;;;;;1.27;0.85;;;36.60;43.10;;;;;;4844743;29;20816;-81
2022/07/24 15:33:50;;;;;;;1.23;0.68;;;36.60;43.10;;;;;;4844211;29;20060;-82
2022/07/24 15:36:15;;;;;;;2.38;0.85;;;36.70;44.50;;;;;;4843900;29;20081;-81
2022/07/24 15:38:41;;;;;;;2.15;1.00;;;36.60;43.20;;;;;;4844391;29;20424;-84
2022/07/24 15:41:07;;;;;;;0.90;0.68;;;36.40;43.40;;;;;;4843085;29;20361;-83
2022/07/24 15:43:32;;;;;;;1.35;0.80;;;36.30;43.80;;;;;;4843182;29;20193;-83
2022/07/24 15:45:58;;;;;;;1.65;1.00;;;36.30;44.50;;;;;;4842879;29;20048;-84
2022/07/24 15:48:24;;;;;;;2.65;1.08;;;36.70;44.20;;;;;;4842258;29;20046;-83
2022/07/24 15:50:50;;;;;;;2.63;0.80;;;37.10;44.40;;;;;;4843141;29;20045;-83
2022/07/24 15:53:16;;;;;;;1.17;0.90;;;37.30;44.30;;;;;;4842778;29;20161;-83
2022/07/24 15:55:41;;;;;;;2.60;0.70;;;37.40;43.80;;;;;;4842834;29;20555;-82
2022/07/24 15:58:07;;;;;;;1.75;0.85;;;37.70;43.40;;;;;;4842697;29;20041;-83
2022/07/24 16:00:33;;;;;;;0.85;0.47;;;37.90;43.50;;;;;;4842728;29;20050;-84
2022/07/24 16:02:59;;;;;;;2.45;1.20;;;38.10;43.20;;;;;;4843246;29;20484;-84
2022/07/24 16:05:25;;;;;;;1.65;0.75;;;38.20;42.80;;;;;;4842806;29;20105;-84
2022/07/24 16:07:51;;;;;;;3.28;1.02;;;38.00;42.20;;;;;;4843399;29;20049;-84
2022/07/24 16:10:17;;;;;;;1.83;1.27;;;37.80;42.90;;;;;;4843584;29;20108;-84
2022/07/24 16:12:44;;;;;;;1.33;0.70;;;37.80;43.50;;;;;;4843385;29;20460;-84
2022/07/24 16:15:09;;;;;;;1.80;0.65;;;38.00;43.00;;;;;;4843415;29;20086;-82
2022/07/24 16:17:35;;;;;;;1.33;0.98;;;38.10;43.00;;;;;;4843894;29;20412;-82
2022/07/24 16:20:02;;;;;;;0.98;0.70;;;38.10;42.60;;;;;;4829017;29;20043;-82
2022/07/24 16:22:27;;;;;;;2.17;0.88;;;38.00;42.90;;;;;;4844156;29;20048;-83
2022/07/24 16:24:53;;;;;;;1.42;0.80;;;38.10;42.90;;;;;;4860014;29;20033;-83
2022/07/24 16:27:19;;;;;;;1.02;0.57;;;38.20;42.70;;;;;;4843300;29;20076;-83
2022/07/24 16:29:44;;;;;;;1.30;0.90;;;38.30;43.20;;;;;;4843662;29;20037;-82
2022/07/24 16:32:10;;;;;;;1.75;0.90;;;38.10;42.50;;;;;;4843336;29;20460;-83
2022/07/24 16:34:36;;;;;;;0.95;0.50;;;37.70;42.70;;;;;;4842858;29;20462;-84
2022/07/24 16:37:01;;;;;;;1.75;0.82;;;37.60;42.30;;;;;;4842364;29;20060;-84
2022/07/24 16:39:27;;;;;;;2.95;0.90;;;37.40;42.90;;;;;;4843285;29;20408;-83
2022/07/24 16:41:53;;;;;;;0.98;0.80;;;37.20;43.30;;;;;;4843804;29;20045;-82
2022/07/24 16:44:18;;;;;;;1.50;0.80;;;36.80;43.70;;;;;;4843618;29;20037;-82
2022/07/24 16:46:44;;;;;;;1.75;0.52;;;36.80;44.90;;;;;;4843588;29;20094;-82
2022/07/24 16:49:09;;;;;;;1.08;0.57;;;36.90;44.80;;;;;;4843081;29;20405;-82
2022/07/24 16:51:35;;;;;;;1.42;0.80;;;37.10;44.80;;;;;;4843504;29;20053;-81
2022/07/24 16:54:00;;;;;;;1.95;0.93;;;37.10;44.20;;;;;;4843860;29;20049;-83
2022/07/24 16:56:26;;;;;;;2.45;0.70;;;36.80;44.70;;;;;;4844232;29;20056;-82
2022/07/24 16:58:51;;;;;;;2.03;0.50;;;36.90;45.30;;;;;;4858947;29;20471;-84
2022/07/24 17:01:18;;;;;;;2.90;0.63;;;37.10;46.00;;;;;;4842094;29;20081;-84
2022/07/24 17:03:45;;;;;;;0.80;0.52;;;37.50;45.20;;;;;;4842479;29;20092;-83
2022/07/24 17:06:10;;;;;;;1.83;0.82;;;37.60;44.70;;;;;;4842582;29;20041;-84
2022/07/24 17:08:36;;;;;;;2.17;0.90;;;37.60;44.00;;;;;;4842153;29;20102;-83
2022/07/24 17:11:02;;;;;;;1.20;0.50;;;37.50;44.70;;;;;;4859415;29;20124;-84
2022/07/24 17:13:29;;;;;;;1.63;0.82;;;37.50;44.90;;;;;;4842308;29;20072;-84
2022/07/24 17:15:55;;;;;;;1.55;0.75;;;37.60;44.90;;;;;;4842157;29;20049;-83
2022/07/24 17:18:21;;;;;;;0.80;0.60;;;37.60;45.40;;;;;;4841719;29;20040;-84
2022/07/24 17:20:47;;;;;;;1.38;0.80;;;37.30;45.10;;;;;;4841418;29;20102;-83
2022/07/24 17:23:12;;;;;;;2.88;0.63;;;37.00;45.20;;;;;;4857814;29;20073;-84
2022/07/24 17:25:40;;;;;;;4.20;0.93;;;36.60;45.70;;;;;;4841426;29;20487;-84
2022/07/24 17:28:09;;;;;;;1.73;0.68;;;36.30;46.60;;;;;;4842367;29;20045;-84
2022/07/24 17:30:36;;;;;;;2.80;0.47;;;36.20;47.00;;;;;;4827571;29;20059;-83
2022/07/24 17:33:03;;;;;;;3.47;0.93;;;36.00;46.60;;;;;;4842055;29;20511;-83
2022/07/24 17:35:29;;;;;;;1.23;0.82;;;35.80;46.90;;;;;;4857964;29;20116;-84
2022/07/24 17:37:55;;;;;;;1.10;0.50;;;35.20;47.40;;;;;;4840906;29;20041;-84
2022/07/24 17:40:21;;;;;;;2.55;1.02;;;34.90;48.30;;;;;;4842191;29;20048;-81
2022/07/24 17:42:51;;;;;;;2.00;0.80;;;34.50;48.90;;;;;;4842242;29;20054;-81
2022/07/24 17:45:18;;;;;;;2.28;0.50;;;33.90;49.60;;;;;;4842704;29;20056;-81
2022/07/24 17:47:43;;;;;;;2.10;0.85;;;33.40;50.70;;;;;;4844140;29;20045;-83
2022/07/24 17:50:10;;;;;;;4.57;1.08;;;32.90;51.70;;;;;;4842666;29;20110;-84
2022/07/24 17:52:38;;;;;;;1.48;0.50;;;32.40;52.10;;;;;;4843479;29;20337;-84
2022/07/24 17:55:05;;;;;;;1.40;0.60;;;32.00;53.00;;;;;;4836027;29;20037;-83
2022/07/24 17:57:30;;;;;;;1.00;0.63;;;31.60;53.80;;;;;;4843919;29;20129;-84
2022/07/24 17:59:56;;;;;;;0.93;0.63;;;31.40;54.10;;;;;;4842130;29;20596;-81
2022/07/24 18:02:22;;;;;;;2.00;0.90;;;31.10;54.40;;;;;;4842217;29;20082;-83
2022/07/24 18:04:48;;;;;;;2.03;1.05;;;30.80;55.30;;;;;;4843426;29;20125;-84
2022/07/24 18:07:14;;;;;;;1.85;0.52;;;30.60;56.40;;;;;;4844585;29;20045;-83
2022/07/24 18:09:39;;;;;;;0.80;0.50;;;30.50;57.70;;;;;;4843489;29;20564;-84
2022/07/24 18:12:06;;;;;;;1.67;0.95;;;30.30;59.10;;;;;;4847100;29;20046;-84
2022/07/24 18:14:31;;;;;;;1.70;0.57;;;30.20;60.90;;;;;;4847457;29;20079;-84
2022/07/24 18:16:57;;;;;;;2.42;1.15;;;30.00;63.90;;;;;;4847466;29;20400;-83
2022/07/24 18:19:22;;;;;;;3.83;0.80;;;29.70;67.30;;;;;;4847384;29;20052;-83
2022/07/24 18:21:48;;;;;;;2.00;0.70;;;29.60;70.30;;;;;;4847615;29;20564;-82
2022/07/24 18:24:14;;;;;;;1.98;0.98;;;29.40;73.70;;;;;;4848512;29;20033;-81
2022/07/24 18:26:39;;;;;;;1.30;0.60;;;29.20;76.30;;;;;;4846428;29;20254;-82
2022/07/24 18:29:05;;;;;;;1.05;0.75;;;29.10;80.50;;;;;;4850479;29;20535;-81
2022/07/24 18:31:31;;;;;;;2.35;0.80;;;29.00;85.10;;;;;;4870011;29;20041;-81
2022/07/24 18:33:58;;;;;;;2.35;1.13;;;28.90;89.30;;;;;;4853786;29;20045;-81
2022/07/24 18:36:24;;;;;;;3.63;2.63;;;28.90;90.30;;;;;;4868510;29;20522;-82
2022/07/24 18:38:49;;;;;;;14.02;9.90;;;28.80;92.10;;;;;;4852255;29;20116;-82
2022/07/24 18:41:15;;;;;;;27.92;21.67;;;28.70;94.10;;;;;;4844418;29;20045;-82
2022/07/24 18:43:41;;;;;;;10.27;7.30;;;28.60;95.50;;;;;;4845134;29;20053;-82
2022/07/24 18:46:07;;;;;;;12.27;11.02;;;28.50;96.50;;;;;;4844645;29;20556;-82
2022/07/24 18:48:33;;;;;;;2.20;1.13;;;28.40;98.40;;;;;;4836539;29;20044;-82
2022/07/24 18:50:59;;;;;;;2.65;0.80;;;28.20;99.90;;;;;;4851723;29;20093;-82
2022/07/24 18:53:25;;;;;;;1.65;0.88;;;28.10;99.90;;;;;;4836135;29;20056;-82
2022/07/24 18:55:51;;;;;;;2.15;1.10;;;27.90;99.90;;;;;;4845915;29;20045;-82
2022/07/24 18:58:16;;;;;;;1.40;0.88;;;27.80;99.90;;;;;;4846668;29;20045;-82
2022/07/24 19:00:42;;;;;;;2.05;1.10;;;27.60;99.90;;;;;;4827408;29;20045;-82
2022/07/24 19:03:11;;;;;;;5.07;1.02;;;27.40;99.90;;;;;;4843450;29;20540;-81
2022/07/24 19:05:36;;;;;;;2.05;1.08;;;27.30;99.90;;;;;;4845843;29;20045;-82
2022/07/24 19:08:02;;;;;;;1.58;1.05;;;27.00;99.90;;;;;;4845451;29;20447;-84
2022/07/24 19:10:28;;;;;;;0.98;0.60;;;26.80;99.90;;;;;;4857664;29;20094;-82
2022/07/24 19:12:53;;;;;;;13.15;10.77;;;26.70;99.90;;;;;;4846491;29;20053;-82
2022/07/24 19:15:19;;;;;;;3.92;1.67;;;26.50;99.90;;;;;;4848268;29;20080;-82
2022/07/24 19:17:44;;;;;;;2.55;1.48;;;26.40;99.90;;;;;;4841963;29;20054;-82
2022/07/24 19:20:10;;;;;;;3.13;1.38;;;26.30;99.90;;;;;;4844409;29;20056;-83